sensor_id;sensor_type;location;lat;lon;timestamp;pressure;altitude;pressure_sealevel;temperature;humidity
41312;BME280;27061;41.648;24.568;2023-03-15T00:02:13;84880.13;;;3.78;55.26
41312;BME280;27061;41.648;24.568;2023-03-15T00:04:40;84880.06;;;3.88;54.71
41312;BME280;27061;41.648;24.568;2023-03-15T00:07:07;84912.81;;;4.10;54.64
41312;BME280;27061;41.648;24.568;2023-03-15T00:09:34;84903.34;;;3.91;54.98
41312;BME280;27061;41.648;24.568;2023-03-15T00:12:01;84899.13;;;4.04;54.85
41312;BME280;27061;41.648;24.568;2023-03-15T00:14:28;84876.66;;;3.83;55.29
41312;BME280;27061;41.648;24.568;2023-03-15T00:16:55;84870.50;;;3.85;54.63
41312;BME280;27061;41.648;24.568;2023-03-15T00:19:23;84888.31;;;3.84;54.38
41312;BME280;27061;41.648;24.568;2023-03-15T00:21:50;84895.78;;;3.93;54.24
41312;BME280;27061;41.648;24.568;2023-03-15T00:24:17;84879.44;;;3.77;53.83
41312;BME280;27061;41.648;24.568;2023-03-15T00:26:44;84816.66;;;3.47;54.32
41312;BME280;27061;41.648;24.568;2023-03-15T00:29:11;84806.41;;;3.45;54.23
41312;BME280;27061;41.648;24.568;2023-03-15T00:31:38;84883.38;;;4.07;55.05
41312;BME280;27061;41.648;24.568;2023-03-15T00:34:05;84877.22;;;4.08;54.82
41312;BME280;27061;41.648;24.568;2023-03-15T00:36:32;84847.97;;;3.76;55.90
41312;BME280;27061;41.648;24.568;2023-03-15T00:38:59;84832.25;;;3.73;54.08
41312;BME280;27061;41.648;24.568;2023-03-15T00:41:26;84822.03;;;3.65;54.12
41312;BME280;27061;41.648;24.568;2023-03-15T00:43:53;84866.25;;;4.08;55.50
41312;BME280;27061;41.648;24.568;2023-03-15T00:46:20;84855.31;;;4.08;55.29
41312;BME280;27061;41.648;24.568;2023-03-15T00:48:48;84869.00;;;4.10;54.98
41312;BME280;27061;41.648;24.568;2023-03-15T00:51:19;84769.47;;;3.48;55.38
41312;BME280;27061;41.648;24.568;2023-03-15T00:53:48;84851.16;;;4.13;55.12
41312;BME280;27061;41.648;24.568;2023-03-15T00:56:18;84835.44;;;4.08;54.54
41312;BME280;27061;41.648;24.568;2023-03-15T00:58:46;84838.84;;;4.12;54.01
41312;BME280;27061;41.648;24.568;2023-03-15T01:01:19;84847.00;;;4.20;54.33
41312;BME280;27061;41.648;24.568;2023-03-15T01:03:47;84864.13;;;4.23;54.19
41312;BME280;27061;41.648;24.568;2023-03-15T01:06:16;84857.97;;;4.16;53.33
41312;BME280;27061;41.648;24.568;2023-03-15T01:08:45;84827.25;;;4.05;53.22
41312;BME280;27061;41.648;24.568;2023-03-15T01:11:16;84793.81;;;3.89;54.32
41312;BME280;27061;41.648;24.568;2023-03-15T01:13:43;84823.13;;;4.09;53.46
41312;BME280;27061;41.648;24.568;2023-03-15T01:16:12;84827.91;;;4.12;53.44
41312;BME280;27061;41.648;24.568;2023-03-15T01:18:41;84831.94;;;4.21;53.00
41312;BME280;27061;41.648;24.568;2023-03-15T01:21:10;84830.56;;;4.18;53.75
41312;BME280;27061;41.648;24.568;2023-03-15T01:23:38;84827.91;;;4.12;54.11
41312;BME280;27061;41.648;24.568;2023-03-15T01:26:08;84829.91;;;4.14;54.10
41312;BME280;27061;41.648;24.568;2023-03-15T01:28:36;84825.81;;;4.15;54.02
41312;BME280;27061;41.648;24.568;2023-03-15T01:31:03;84815.50;;;4.19;53.54
41312;BME280;27061;41.648;24.568;2023-03-15T01:33:30;84801.88;;;4.13;54.00
41312;BME280;27061;41.648;24.568;2023-03-15T01:36:03;84771.88;;;3.93;53.54
41312;BME280;27061;41.648;24.568;2023-03-15T01:38:32;84792.28;;;4.10;52.57
41312;BME280;27061;41.648;24.568;2023-03-15T01:41:00;84765.16;;;3.78;52.77
41312;BME280;27061;41.648;24.568;2023-03-15T01:43:28;84803.22;;;4.14;51.94
41312;BME280;27061;41.648;24.568;2023-03-15T01:54:05;84784.41;;;3.65;52.25
41312;BME280;27061;41.648;24.568;2023-03-15T01:56:36;84805.47;;;3.87;52.40
41312;BME280;27061;41.648;24.568;2023-03-15T01:59:07;84753.06;;;3.40;52.55
41312;BME280;27061;41.648;24.568;2023-03-15T02:01:39;84793.97;;;3.66;52.11
41312;BME280;27061;41.648;24.568;2023-03-15T02:04:16;84786.50;;;3.57;53.33
41312;BME280;27061;41.648;24.568;2023-03-15T02:06:46;84804.91;;;3.71;53.26
41312;BME280;27061;41.648;24.568;2023-03-15T02:09:16;84777.00;;;3.46;51.88
41312;BME280;27061;41.648;24.568;2023-03-15T02:11:46;84790.59;;;3.60;53.05
41312;BME280;27061;41.648;24.568;2023-03-15T02:14:15;84807.59;;;3.77;52.91
41312;BME280;27061;41.648;24.568;2023-03-15T02:16:43;84773.50;;;3.59;53.29
41312;BME280;27061;41.648;24.568;2023-03-15T02:19:45;84693.84;;;2.98;52.11
41312;BME280;27061;41.648;24.568;2023-03-15T02:25:15;84788.50;;;3.66;53.38
41312;BME280;27061;41.648;24.568;2023-03-15T02:27:46;84773.50;;;3.55;52.75
41312;BME280;27061;41.648;24.568;2023-03-15T02:30:14;84736.09;;;3.23;52.80
41312;BME280;27061;41.648;24.568;2023-03-15T02:32:41;84785.78;;;3.60;51.89
41312;BME280;27061;41.648;24.568;2023-03-15T02:35:08;84787.88;;;3.60;52.96
41312;BME280;27061;41.648;24.568;2023-03-15T02:37:38;84742.19;;;3.32;51.96
41312;BME280;27061;41.648;24.568;2023-03-15T02:40:17;84784.47;;;3.53;53.02
41312;BME280;27061;41.648;24.568;2023-03-15T02:42:45;84755.94;;;3.22;52.48
41312;BME280;27061;41.648;24.568;2023-03-15T02:45:14;84742.94;;;3.20;53.09
41312;BME280;27061;41.648;24.568;2023-03-15T02:47:42;84776.94;;;3.54;52.70
41312;BME280;27061;41.648;24.568;2023-03-15T02:50:10;84794.09;;;3.46;53.25
41312;BME280;27061;41.648;24.568;2023-03-15T02:52:37;84719.78;;;3.07;52.82
41312;BME280;27061;41.648;24.568;2023-03-15T02:55:05;84738.84;;;3.21;53.32
41312;BME280;27061;41.648;24.568;2023-03-15T02:57:34;84669.34;;;2.80;54.22
41312;BME280;27061;41.648;24.568;2023-03-15T03:00:02;84738.72;;;3.42;53.16
41312;BME280;27061;41.648;24.568;2023-03-15T03:02:40;84761.19;;;3.58;52.55
41312;BME280;27061;41.648;24.568;2023-03-15T03:05:11;84758.53;;;3.48;53.46
41312;BME280;27061;41.648;24.568;2023-03-15T03:07:39;84713.53;;;3.21;53.90
41312;BME280;27061;41.648;24.568;2023-03-15T03:10:14;84704.03;;;3.12;54.13
41312;BME280;27061;41.648;24.568;2023-03-15T03:12:48;84747.66;;;3.32;53.96
41312;BME280;27061;41.648;24.568;2023-03-15T03:15:26;84689.16;;;2.84;55.65
41312;BME280;27061;41.648;24.568;2023-03-15T03:17:53;84703.31;;;3.17;55.75
41312;BME280;27061;41.648;24.568;2023-03-15T03:20:21;84710.13;;;3.18;55.81
41312;BME280;27061;41.648;24.568;2023-03-15T03:22:49;84623.59;;;2.76;54.56
41312;BME280;27061;41.648;24.568;2023-03-15T03:25:17;84668.53;;;3.06;54.24
41312;BME280;27061;41.648;24.568;2023-03-15T03:27:46;84688.94;;;3.21;55.13
41312;BME280;27061;41.648;24.568;2023-03-15T03:30:14;84717.50;;;3.40;55.80
41312;BME280;27061;41.648;24.568;2023-03-15T03:32:47;84654.94;;;2.91;55.09
41312;BME280;27061;41.648;24.568;2023-03-15T03:35:14;84708.00;;;3.31;55.67
41312;BME280;27061;41.648;24.568;2023-03-15T03:37:42;84684.81;;;3.22;56.18
41312;BME280;27061;41.648;24.568;2023-03-15T03:40:16;84676.66;;;3.14;55.28
41312;BME280;27061;41.648;24.568;2023-03-15T03:42:44;84672.59;;;3.09;55.13
41312;BME280;27061;41.648;24.568;2023-03-15T03:45:11;84711.34;;;3.40;55.34
41312;BME280;27061;41.648;24.568;2023-03-15T03:47:42;84712.03;;;3.40;55.57
41312;BME280;27061;41.648;24.568;2023-03-15T03:50:10;84688.28;;;3.16;55.76
41312;BME280;27061;41.648;24.568;2023-03-15T03:52:38;84659.00;;;2.99;55.75
41312;BME280;27061;41.648;24.568;2023-03-15T03:55:10;84637.16;;;2.97;55.86
41312;BME280;27061;41.648;24.568;2023-03-15T03:57:42;84701.09;;;3.44;55.96
41312;BME280;27061;41.648;24.568;2023-03-15T04:00:14;84668.38;;;3.28;52.15
41312;BME280;27061;41.648;24.568;2023-03-15T04:02:42;84677.16;;;3.41;53.78
41312;BME280;27061;41.648;24.568;2023-03-15T04:05:12;84695.50;;;3.58;54.96
41312;BME280;27061;41.648;24.568;2023-03-15T04:07:40;84624.09;;;3.05;55.10
41312;BME280;27061;41.648;24.568;2023-03-15T04:10:09;84658.75;;;3.33;55.01
41312;BME280;27061;41.648;24.568;2023-03-15T04:12:43;84636.31;;;3.16;54.73
41312;BME280;27061;41.648;24.568;2023-03-15T04:15:12;84675.84;;;3.36;55.89
41312;BME280;27061;41.648;24.568;2023-03-15T04:17:40;84666.19;;;3.45;55.66
41312;BME280;27061;41.648;24.568;2023-03-15T04:20:08;84622.00;;;3.12;56.43
41312;BME280;27061;41.648;24.568;2023-03-15T04:22:42;84643.09;;;3.27;56.10
41312;BME280;27061;41.648;24.568;2023-03-15T04:25:38;84660.81;;;3.33;56.87
41312;BME280;27061;41.648;24.568;2023-03-15T04:28:31;84628.81;;;3.13;56.56
41312;BME280;27061;41.648;24.568;2023-03-15T04:31:09;84656.69;;;3.38;56.92
41312;BME280;27061;41.648;24.568;2023-03-15T04:33:55;84649.88;;;3.28;58.05
41312;BME280;27061;41.648;24.568;2023-03-15T04:37:01;84638.38;;;3.14;57.28
41312;BME280;27061;41.648;24.568;2023-03-15T04:39:36;84665.53;;;3.40;57.42
41312;BME280;27061;41.648;24.568;2023-03-15T04:42:23;84664.13;;;3.45;57.41
41312;BME280;27061;41.648;24.568;2023-03-15T04:45:11;84634.22;;;3.21;57.67
41312;BME280;27061;41.648;24.568;2023-03-15T04:47:57;84594.75;;;3.00;57.07
41312;BME280;27061;41.648;24.568;2023-03-15T04:50:49;84649.16;;;3.36;57.81
41312;BME280;27061;41.648;24.568;2023-03-15T04:53:36;84658.00;;;3.43;58.15
41312;BME280;27061;41.648;24.568;2023-03-15T04:56:17;84631.47;;;3.23;57.31
41312;BME280;27061;41.648;24.568;2023-03-15T04:59:03;84661.47;;;3.37;57.61
41312;BME280;27061;41.648;24.568;2023-03-15T05:01:49;84635.59;;;3.24;57.52
41312;BME280;27061;41.648;24.568;2023-03-15T05:04:19;84655.94;;;3.41;57.77
41312;BME280;27061;41.648;24.568;2023-03-15T05:06:54;84603.00;;;2.93;57.82
41312;BME280;27061;41.648;24.568;2023-03-15T05:09:50;84660.13;;;3.34;57.81
41312;BME280;27061;41.648;24.568;2023-03-15T05:12:24;84576.44;;;2.78;58.51
41312;BME280;27061;41.648;24.568;2023-03-15T05:15:12;84609.78;;;3.01;59.10
41312;BME280;27061;41.648;24.568;2023-03-15T05:17:58;84615.16;;;3.11;59.37
41312;BME280;27061;41.648;24.568;2023-03-15T05:20:39;84627.38;;;3.26;59.72
41312;BME280;27061;41.648;24.568;2023-03-15T05:23:15;84603.53;;;3.14;60.06
41312;BME280;27061;41.648;24.568;2023-03-15T05:26:01;84620.44;;;3.35;60.50
41312;BME280;27061;41.648;24.568;2023-03-15T05:28:47;84653.78;;;3.60;60.52
41312;BME280;27061;41.648;24.568;2023-03-15T05:31:43;84651.63;;;3.68;61.07
41312;BME280;27061;41.648;24.568;2023-03-15T05:34:29;84622.94;;;3.61;61.74
41312;BME280;27061;41.648;24.568;2023-03-15T05:36:58;84610.63;;;3.62;60.93
41312;BME280;27061;41.648;24.568;2023-03-15T05:39:33;84586.06;;;3.54;59.44
41312;BME280;27061;41.648;24.568;2023-03-15T05:42:12;84644.44;;;4.06;58.70
41312;BME280;27061;41.648;24.568;2023-03-15T05:45:00;84655.34;;;4.10;57.58
41312;BME280;27061;41.648;24.568;2023-03-15T05:47:45;84653.88;;;4.21;57.36
41312;BME280;27061;41.648;24.568;2023-03-15T05:50:26;84637.47;;;4.17;57.63
41312;BME280;27061;41.648;24.568;2023-03-15T05:53:12;84626.56;;;4.13;55.20
41312;BME280;27061;41.648;24.568;2023-03-15T05:56:08;84638.66;;;4.34;56.48
41312;BME280;27061;41.648;24.568;2023-03-15T05:58:54;84623.66;;;4.27;57.38
41312;BME280;27061;41.648;24.568;2023-03-15T06:01:39;84568.66;;;3.84;56.60
41312;BME280;27061;41.648;24.568;2023-03-15T06:04:29;84646.13;;;4.42;57.91
41312;BME280;27061;41.648;24.568;2023-03-15T06:06:57;84633.78;;;4.43;58.45
41312;BME280;27061;41.648;24.568;2023-03-15T06:09:24;84654.72;;;4.67;58.85
41312;BME280;27061;41.648;24.568;2023-03-15T06:11:51;84643.13;;;4.62;58.96
41312;BME280;27061;41.648;24.568;2023-03-15T06:14:20;84607.00;;;4.48;57.95
41312;BME280;27061;41.648;24.568;2023-03-15T06:16:50;84568.13;;;4.33;55.59
41312;BME280;27061;41.648;24.568;2023-03-15T06:19:18;84639.34;;;4.92;55.25
41312;BME280;27061;41.648;24.568;2023-03-15T06:21:46;84641.97;;;4.98;54.65
41312;BME280;27061;41.648;24.568;2023-03-15T06:24:23;84599.88;;;4.69;53.92
41312;BME280;27061;41.648;24.568;2023-03-15T06:26:54;84602.41;;;4.85;52.76
41312;BME280;27061;41.648;24.568;2023-03-15T06:29:22;84650.00;;;5.17;51.72
41312;BME280;27061;41.648;24.568;2023-03-15T06:31:52;84595.81;;;4.66;53.54
41312;BME280;27061;41.648;24.568;2023-03-15T06:34:19;84598.44;;;4.74;53.08
41312;BME280;27061;41.648;24.568;2023-03-15T06:36:48;84602.97;;;4.96;54.21
41312;BME280;27061;41.648;24.568;2023-03-15T06:39:15;84640.13;;;5.34;54.16
41312;BME280;27061;41.648;24.568;2023-03-15T06:41:42;84637.97;;;5.40;53.20
41312;BME280;27061;41.648;24.568;2023-03-15T06:44:15;84551.69;;;4.86;54.70
41312;BME280;27061;41.648;24.568;2023-03-15T06:46:44;84558.28;;;5.03;53.03
41312;BME280;27061;41.648;24.568;2023-03-15T06:49:11;84565.50;;;5.23;55.04
41312;BME280;27061;41.648;24.568;2023-03-15T06:51:40;84633.91;;;5.82;55.52
41312;BME280;27061;41.648;24.568;2023-03-15T06:54:08;84633.81;;;5.91;56.42
41312;BME280;27061;41.648;24.568;2023-03-15T06:56:35;84537.34;;;5.27;56.77
41312;BME280;27061;41.648;24.568;2023-03-15T06:59:03;84623.41;;;5.95;56.69
41312;BME280;27061;41.648;24.568;2023-03-15T07:01:30;84585.94;;;5.75;56.00
41312;BME280;27061;41.648;24.568;2023-03-15T07:03:57;84644.38;;;6.15;55.05
41312;BME280;27061;41.648;24.568;2023-03-15T07:06:25;84634.66;;;6.22;54.86
41312;BME280;27061;41.648;24.568;2023-03-15T07:08:53;84606.06;;;6.05;55.31
41312;BME280;27061;41.648;24.568;2023-03-15T07:11:21;84634.53;;;6.28;55.69
41312;BME280;27061;41.648;24.568;2023-03-15T07:13:48;84635.66;;;6.41;55.07
41312;BME280;27061;41.648;24.568;2023-03-15T07:16:15;84614.63;;;6.25;54.09
41312;BME280;27061;41.648;24.568;2023-03-15T07:18:42;84633.63;;;6.40;54.28
41312;BME280;27061;41.648;24.568;2023-03-15T07:21:09;84645.03;;;6.56;52.98
41312;BME280;27061;41.648;24.568;2023-03-15T07:23:36;84620.00;;;6.34;52.74
41312;BME280;27061;41.648;24.568;2023-03-15T07:26:03;84615.03;;;6.42;52.89
41312;BME280;27061;41.648;24.568;2023-03-15T07:28:31;84631.66;;;6.71;53.44
41312;BME280;27061;41.648;24.568;2023-03-15T07:31:00;84631.50;;;6.79;54.52
41312;BME280;27061;41.648;24.568;2023-03-15T07:33:30;84628.03;;;6.81;53.90
41312;BME280;27061;41.648;24.568;2023-03-15T07:35:58;84626.56;;;6.88;54.12
41312;BME280;27061;41.648;24.568;2023-03-15T07:38:26;84607.41;;;6.82;53.73
41312;BME280;27061;41.648;24.568;2023-03-15T07:40:57;84614.97;;;6.81;50.98
41312;BME280;27061;41.648;24.568;2023-03-15T07:43:24;84600.06;;;6.70;53.42
41312;BME280;27061;41.648;24.568;2023-03-15T07:46:04;84581.53;;;6.69;54.48
41312;BME280;27061;41.648;24.568;2023-03-15T07:48:32;84632.94;;;7.11;54.40
41312;BME280;27061;41.648;24.568;2023-03-15T07:50:59;84637.03;;;7.12;53.76
41312;BME280;27061;41.648;24.568;2023-03-15T07:53:27;84605.72;;;6.97;53.45
41312;BME280;27061;41.648;24.568;2023-03-15T07:55:54;84639.59;;;7.22;52.91
41312;BME280;27061;41.648;24.568;2023-03-15T07:58:21;84580.50;;;6.86;52.12
41312;BME280;27061;41.648;24.568;2023-03-15T08:00:48;84634.66;;;7.29;53.16
41312;BME280;27061;41.648;24.568;2023-03-15T08:03:16;84627.66;;;7.34;51.10
41312;BME280;27061;41.648;24.568;2023-03-15T08:05:43;84584.78;;;7.10;51.48
41312;BME280;27061;41.648;24.568;2023-03-15T08:08:10;84595.00;;;7.16;53.11
41312;BME280;27061;41.648;24.568;2023-03-15T08:10:37;84580.66;;;7.11;53.77
41312;BME280;27061;41.648;24.568;2023-03-15T08:13:04;84612.81;;;7.52;56.07
41312;BME280;27061;41.648;24.568;2023-03-15T08:15:31;84584.09;;;7.43;55.12
41312;BME280;27061;41.648;24.568;2023-03-15T08:17:58;84606.75;;;7.76;56.02
41312;BME280;27061;41.648;24.568;2023-03-15T08:20:25;84583.59;;;7.65;56.45
41312;BME280;27061;41.648;24.568;2023-03-15T08:22:55;84547.09;;;7.35;55.61
41312;BME280;27061;41.648;24.568;2023-03-15T08:25:23;84564.13;;;7.73;51.53
41312;BME280;27061;41.648;24.568;2023-03-15T08:27:51;84589.56;;;8.04;53.01
41312;BME280;27061;41.648;24.568;2023-03-15T08:30:19;84571.66;;;8.03;53.46
41312;BME280;27061;41.648;24.568;2023-03-15T08:32:48;84574.16;;;8.14;53.58
41312;BME280;27061;41.648;24.568;2023-03-15T08:35:16;84564.16;;;8.27;56.15
41312;BME280;27061;41.648;24.568;2023-03-15T08:37:43;84518.25;;;7.90;56.94
41312;BME280;27061;41.648;24.568;2023-03-15T08:40:15;84540.22;;;8.21;55.60
41312;BME280;27061;41.648;24.568;2023-03-15T08:42:44;84568.19;;;8.59;53.71
41312;BME280;27061;41.648;24.568;2023-03-15T08:45:12;84590.75;;;8.92;49.59
41312;BME280;27061;41.648;24.568;2023-03-15T08:47:39;84579.03;;;8.92;50.33
41312;BME280;27061;41.648;24.568;2023-03-15T08:50:12;84506.97;;;8.54;52.29
41312;BME280;27061;41.648;24.568;2023-03-15T08:52:39;84555.22;;;9.05;53.01
41312;BME280;27061;41.648;24.568;2023-03-15T08:55:07;84537.00;;;9.14;53.60
41312;BME280;27061;41.648;24.568;2023-03-15T08:57:34;84493.66;;;8.86;45.92
41312;BME280;27061;41.648;24.568;2023-03-15T09:00:04;84501.31;;;9.08;44.48
41312;BME280;27061;41.648;24.568;2023-03-15T09:02:50;84483.50;;;9.03;42.24
41312;BME280;27061;41.648;24.568;2023-03-15T09:05:19;84572.66;;;9.70;39.36
41312;BME280;27061;41.648;24.568;2023-03-15T09:07:47;84553.63;;;9.60;40.36
41312;BME280;27061;41.648;24.568;2023-03-15T09:10:15;84568.44;;;9.73;41.35
41312;BME280;27061;41.648;24.568;2023-03-15T09:12:45;84578.00;;;9.76;40.82
41312;BME280;27061;41.648;24.568;2023-03-15T09:15:13;84587.09;;;9.72;40.26
41312;BME280;27061;41.648;24.568;2023-03-15T09:17:41;84552.09;;;9.42;40.66
41312;BME280;27061;41.648;24.568;2023-03-15T09:20:11;84532.53;;;9.25;40.76
41312;BME280;27061;41.648;24.568;2023-03-15T09:22:43;84527.44;;;9.11;39.16
41312;BME280;27061;41.648;24.568;2023-03-15T09:25:15;84574.94;;;9.63;40.55
41312;BME280;27061;41.648;24.568;2023-03-15T09:27:42;84557.03;;;9.37;40.71
41312;BME280;27061;41.648;24.568;2023-03-15T09:30:09;84576.66;;;9.52;37.57
41312;BME280;27061;41.648;24.568;2023-03-15T09:32:37;84517.00;;;9.13;39.91
41312;BME280;27061;41.648;24.568;2023-03-15T09:35:09;84576.03;;;9.49;39.38
41312;BME280;27061;41.648;24.568;2023-03-15T09:37:38;84569.25;;;9.44;41.16
41312;BME280;27061;41.648;24.568;2023-03-15T09:40:06;84534.19;;;9.16;39.47
41312;BME280;27061;41.648;24.568;2023-03-15T09:54:15;84581.34;;;9.55;40.22
41312;BME280;27061;41.648;24.568;2023-03-15T09:56:52;84580.63;;;9.57;42.53
41312;BME280;27061;41.648;24.568;2023-03-15T09:59:26;84520.09;;;9.26;40.41
41312;BME280;27061;41.648;24.568;2023-03-15T10:01:57;84569.84;;;9.72;39.74
41312;BME280;27061;41.648;24.568;2023-03-15T10:04:29;84574.53;;;9.75;39.65
41312;BME280;27061;41.648;24.568;2023-03-15T10:07:02;84530.34;;;9.52;42.89
41312;BME280;27061;41.648;24.568;2023-03-15T10:09:35;84571.78;;;9.98;39.78
41312;BME280;27061;41.648;24.568;2023-03-15T10:12:05;84521.69;;;9.65;43.86
41312;BME280;27061;41.648;24.568;2023-03-15T10:17:14;84517.53;;;9.86;41.69
41312;BME280;27061;41.648;24.568;2023-03-15T10:19:50;84567.16;;;10.36;38.31
41312;BME280;27061;41.648;24.568;2023-03-15T10:22:32;84541.75;;;10.30;39.32
41312;BME280;27061;41.648;24.568;2023-03-15T10:25:17;84574.91;;;10.52;39.38
41312;BME280;27061;41.648;24.568;2023-03-15T10:28:08;84543.28;;;10.47;42.08
41312;BME280;27061;41.648;24.568;2023-03-15T10:30:38;84574.91;;;10.73;38.70
41312;BME280;27061;41.648;24.568;2023-03-15T10:36:31;84560.53;;;10.89;36.11
41312;BME280;27061;41.648;24.568;2023-03-15T10:38:57;84519.63;;;10.50;36.70
41312;BME280;27061;41.648;24.568;2023-03-15T10:41:37;84563.66;;;10.58;34.72
41312;BME280;27061;41.648;24.568;2023-03-15T10:44:11;84547.56;;;10.63;36.52
41312;BME280;27061;41.648;24.568;2023-03-15T10:46:39;84529.97;;;10.52;36.11
41312;BME280;27061;41.648;24.568;2023-03-15T10:49:15;84569.09;;;10.81;37.63
41312;BME280;27061;41.648;24.568;2023-03-15T10:51:44;84549.88;;;10.77;39.68
41312;BME280;27061;41.648;24.568;2023-03-15T10:54:18;84566.19;;;10.44;35.48
41312;BME280;27061;41.648;24.568;2023-03-15T10:59:25;84504.66;;;10.22;38.45
41312;BME280;27061;41.648;24.568;2023-03-15T11:02:05;84541.63;;;10.34;36.41
41312;BME280;27061;41.648;24.568;2023-03-15T11:04:33;84531.41;;;10.07;37.76
41312;BME280;27061;41.648;24.568;2023-03-15T11:07:07;84555.53;;;10.32;37.17
41312;BME280;27061;41.648;24.568;2023-03-15T11:09:42;84556.88;;;10.33;37.99
41312;BME280;27061;41.648;24.568;2023-03-15T11:12:21;84475.69;;;9.78;37.52
41312;BME280;27061;41.648;24.568;2023-03-15T11:15:12;84566.41;;;10.38;38.20
41312;BME280;27061;41.648;24.568;2023-03-15T11:17:46;84536.88;;;10.09;36.93
41312;BME280;27061;41.648;24.568;2023-03-15T11:20:29;84543.38;;;10.22;37.21
41312;BME280;27061;41.648;24.568;2023-03-15T11:22:58;84511.34;;;9.86;37.92
41312;BME280;27061;41.648;24.568;2023-03-15T11:25:29;84538.38;;;10.06;36.78
41312;BME280;27061;41.648;24.568;2023-03-15T11:27:59;84524.09;;;9.98;38.00
41312;BME280;27061;41.648;24.568;2023-03-15T11:30:31;84530.38;;;9.96;38.60
41312;BME280;27061;41.648;24.568;2023-03-15T11:33:02;84554.69;;;10.14;39.07
41312;BME280;27061;41.648;24.568;2023-03-15T11:35:35;84578.28;;;10.11;38.45
41312;BME280;27061;41.648;24.568;2023-03-15T11:38:13;84591.38;;;10.36;38.70
41312;BME280;27061;41.648;24.568;2023-03-15T11:40:45;84591.44;;;10.11;40.41
41312;BME280;27061;41.648;24.568;2023-03-15T11:45:59;84563.56;;;9.50;42.58
41312;BME280;27061;41.648;24.568;2023-03-15T11:48:41;84487.91;;;8.94;43.43
41312;BME280;27061;41.648;24.568;2023-03-15T11:51:10;84576.09;;;9.47;43.83
41312;BME280;27061;41.648;24.568;2023-03-15T11:56:27;84522.28;;;8.99;45.34
41312;BME280;27061;41.648;24.568;2023-03-15T11:59:03;84574.25;;;9.40;45.13
41312;BME280;27061;41.648;24.568;2023-03-15T12:01:32;84456.06;;;8.49;45.96
41312;BME280;27061;41.648;24.568;2023-03-15T12:06:56;84444.81;;;8.32;47.03
41312;BME280;27061;41.648;24.568;2023-03-15T12:12:03;84559.41;;;8.79;47.00
41312;BME280;27061;41.648;24.568;2023-03-15T12:14:35;84471.66;;;8.34;47.62
41312;BME280;27061;41.648;24.568;2023-03-15T12:19:59;84476.03;;;8.25;48.22
41312;BME280;27061;41.648;24.568;2023-03-15T12:22:32;84501.41;;;8.56;49.05
41312;BME280;27061;41.648;24.568;2023-03-15T12:25:12;84542.19;;;9.01;48.98
41312;BME280;27061;41.648;24.568;2023-03-15T12:27:47;84464.41;;;8.20;49.77
41312;BME280;27061;41.648;24.568;2023-03-15T12:30:31;84497.75;;;8.37;50.58
41312;BME280;27061;41.648;24.568;2023-03-15T12:33:01;84502.00;;;8.34;50.40
41312;BME280;27061;41.648;24.568;2023-03-15T12:35:40;84510.38;;;8.28;50.13
41312;BME280;27061;41.648;24.568;2023-03-15T12:38:21;84519.63;;;8.45;50.89
41312;BME280;27061;41.648;24.568;2023-03-15T12:40:56;84477.72;;;8.38;50.53
41312;BME280;27061;41.648;24.568;2023-03-15T12:43:42;84537.88;;;8.84;50.30
41312;BME280;27061;41.648;24.568;2023-03-15T12:51:59;84528.63;;;9.18;50.20
41312;BME280;27061;41.648;24.568;2023-03-15T12:57:10;84458.19;;;8.71;49.48
41312;BME280;27061;41.648;24.568;2023-03-15T13:05:22;84521.03;;;9.41;48.92
41312;BME280;27061;41.648;24.568;2023-03-15T13:08:08;84526.66;;;9.37;48.56
41312;BME280;27061;41.648;24.568;2023-03-15T13:11:04;84525.16;;;9.42;49.20
41312;BME280;27061;41.648;24.568;2023-03-15T13:16:37;84504.75;;;9.31;47.28
41312;BME280;27061;41.648;24.568;2023-03-15T13:30:40;84513.66;;;9.34;50.89
41312;BME280;27061;41.648;24.568;2023-03-15T13:33:19;84520.56;;;9.33;48.92
41312;BME280;27061;41.648;24.568;2023-03-15T13:36:14;84509.09;;;9.47;50.58
41312;BME280;27061;41.648;24.568;2023-03-15T13:38:53;84506.72;;;9.58;48.73
41312;BME280;27061;41.648;24.568;2023-03-15T13:41:26;84506.72;;;9.58;49.26
41312;BME280;27061;41.648;24.568;2023-03-15T13:43:56;84504.16;;;9.51;49.00
41312;BME280;27061;41.648;24.568;2023-03-15T13:46:26;84509.41;;;9.60;49.62
41312;BME280;27061;41.648;24.568;2023-03-15T13:48:55;84500.25;;;9.65;50.55
41312;BME280;27061;41.648;24.568;2023-03-15T13:51:29;84490.69;;;9.62;49.15
41312;BME280;27061;41.648;24.568;2023-03-15T13:56:36;84493.69;;;9.98;49.00
41312;BME280;27061;41.648;24.568;2023-03-15T13:59:16;84491.59;;;9.98;48.00
41312;BME280;27061;41.648;24.568;2023-03-15T14:01:44;84464.28;;;9.67;47.84
41312;BME280;27061;41.648;24.568;2023-03-15T14:04:15;84474.50;;;9.94;46.76
41312;BME280;27061;41.648;24.568;2023-03-15T14:06:47;84443.81;;;9.81;48.93
41312;BME280;27061;41.648;24.568;2023-03-15T14:09:23;84492.06;;;10.27;50.32
41312;BME280;27061;41.648;24.568;2023-03-15T14:12:03;84495.34;;;10.11;48.42
41312;BME280;27061;41.648;24.568;2023-03-15T14:14:33;84465.72;;;9.87;47.33
41312;BME280;27061;41.648;24.568;2023-03-15T14:17:15;84480.09;;;10.33;47.81
41312;BME280;27061;41.648;24.568;2023-03-15T14:19:51;84450.84;;;10.19;46.38
41312;BME280;27061;41.648;24.568;2023-03-15T14:22:20;84391.28;;;9.81;46.10
41312;BME280;27061;41.648;24.568;2023-03-15T14:24:51;84358.59;;;9.67;47.23
41312;BME280;27061;41.648;24.568;2023-03-15T14:27:19;84483.78;;;10.67;45.82
41312;BME280;27061;41.648;24.568;2023-03-15T14:29:58;84480.16;;;10.52;45.56
41312;BME280;27061;41.648;24.568;2023-03-15T14:32:36;84474.94;;;10.62;46.94
41312;BME280;27061;41.648;24.568;2023-03-15T14:35:19;84447.19;;;10.46;45.93
41312;BME280;27061;41.648;24.568;2023-03-15T14:38:13;84387.56;;;10.09;45.16
41312;BME280;27061;41.648;24.568;2023-03-15T14:40:41;84472.91;;;10.61;44.95
41312;BME280;27061;41.648;24.568;2023-03-15T14:43:10;84409.28;;;10.01;44.87
41312;BME280;27061;41.648;24.568;2023-03-15T14:45:40;84417.03;;;10.17;46.14